sensor_id;sensor_type;location;lat;lon;timestamp;pressure;altitude;pressure_sealevel;temperature;humidity
788;BME280;16074;42.708;23.312;2023-04-28T00:00:39;139817.72;;;6.24;64.75
788;BME280;16074;42.708;23.312;2023-04-28T00:03:07;139839.31;;;6.33;65.02
788;BME280;16074;42.708;23.312;2023-04-28T00:05:35;139823.75;;;6.27;65.20
788;BME280;16074;42.708;23.312;2023-04-28T00:08:04;139803.38;;;6.18;65.64
788;BME280;16074;42.708;23.312;2023-04-28T00:10:33;139810.56;;;6.21;66.13
788;BME280;16074;42.708;23.312;2023-04-28T00:13:01;139846.50;;;6.36;65.88
788;BME280;16074;42.708;23.312;2023-04-28T00:15:29;139817.72;;;6.24;65.77
788;BME280;16074;42.708;23.312;2023-04-28T00:17:59;139775.75;;;6.07;66.41
788;BME280;16074;42.708;23.312;2023-04-28T00:20:27;139753.00;;;5.97;66.84
788;BME280;16074;42.708;23.312;2023-04-28T00:22:56;139757.78;;;5.99;66.38
788;BME280;16074;42.708;23.312;2023-04-28T00:25:24;139733.81;;;5.89;67.00
788;BME280;16074;42.708;23.312;2023-04-28T00:27:52;139732.63;;;5.89;67.06
788;BME280;16074;42.708;23.312;2023-04-28T00:30:20;139750.59;;;5.96;67.30
788;BME280;16074;42.708;23.312;2023-04-28T00:32:51;139726.63;;;5.87;66.93
788;BME280;16074;42.708;23.312;2023-04-28T00:35:21;139756.56;;;5.99;67.44
788;BME280;16074;42.708;23.312;2023-04-28T00:37:49;139756.56;;;5.99;67.00
788;BME280;16074;42.708;23.312;2023-04-28T00:40:17;139727.84;;;5.87;67.76
788;BME280;16074;42.708;23.312;2023-04-28T00:42:46;139696.63;;;5.74;67.96
788;BME280;16074;42.708;23.312;2023-04-28T00:45:14;139696.63;;;5.74;68.56
788;BME280;16074;42.708;23.312;2023-04-28T00:47:42;139696.63;;;5.74;67.98
788;BME280;16074;42.708;23.312;2023-04-28T00:50:11;139687.03;;;5.70;68.18
788;BME280;16074;42.708;23.312;2023-04-28T00:52:41;139677.44;;;5.66;67.98
788;BME280;16074;42.708;23.312;2023-04-28T00:55:11;139687.03;;;5.70;68.36
788;BME280;16074;42.708;23.312;2023-04-28T00:57:42;139676.25;;;5.66;68.61
788;BME280;16074;42.708;23.312;2023-04-28T01:00:14;139663.06;;;5.60;68.46
788;BME280;16074;42.708;23.312;2023-04-28T01:02:42;139685.81;;;5.70;68.51
788;BME280;16074;42.708;23.312;2023-04-28T01:05:11;139672.66;;;5.64;68.54
788;BME280;16074;42.708;23.312;2023-04-28T01:07:42;139667.84;;;5.62;69.30
788;BME280;16074;42.708;23.312;2023-04-28T01:10:10;139649.91;;;5.55;69.44
788;BME280;16074;42.708;23.312;2023-04-28T01:12:38;139652.28;;;5.56;69.51
788;BME280;16074;42.708;23.312;2023-04-28T01:15:11;139636.69;;;5.49;69.68
788;BME280;16074;42.708;23.312;2023-04-28T01:17:44;139645.09;;;5.53;69.27
788;BME280;16074;42.708;23.312;2023-04-28T01:20:12;139635.50;;;5.49;70.06
788;BME280;16074;42.708;23.312;2023-04-28T01:22:42;139640.31;;;5.51;69.70
788;BME280;16074;42.708;23.312;2023-04-28T01:25:12;139615.13;;;5.40;69.48
788;BME280;16074;42.708;23.312;2023-04-28T01:27:40;139606.75;;;5.37;70.13
788;BME280;16074;42.708;23.312;2023-04-28T01:30:09;139606.75;;;5.37;70.17
788;BME280;16074;42.708;23.312;2023-04-28T01:32:38;139609.16;;;5.38;70.33
788;BME280;16074;42.708;23.312;2023-04-28T01:35:06;139591.19;;;5.30;70.54
788;BME280;16074;42.708;23.312;2023-04-28T01:37:35;139576.81;;;5.24;71.16
788;BME280;16074;42.708;23.312;2023-04-28T01:40:05;139564.81;;;5.19;70.60
788;BME280;16074;42.708;23.312;2023-04-28T01:42:35;139562.44;;;5.18;71.18
788;BME280;16074;42.708;23.312;2023-04-28T01:45:04;139560.03;;;5.17;71.85
788;BME280;16074;42.708;23.312;2023-04-28T01:47:34;139545.66;;;5.11;71.48
788;BME280;16074;42.708;23.312;2023-04-28T01:50:03;139537.28;;;5.08;72.10
788;BME280;16074;42.708;23.312;2023-04-28T01:52:31;139539.69;;;5.09;72.43
788;BME280;16074;42.708;23.312;2023-04-28T01:55:00;139520.53;;;5.01;72.56
788;BME280;16074;42.708;23.312;2023-04-28T01:57:28;139514.50;;;4.98;73.02
788;BME280;16074;42.708;23.312;2023-04-28T01:59:58;139500.13;;;4.92;73.24
788;BME280;16074;42.708;23.312;2023-04-28T02:02:27;139497.75;;;4.91;73.99
788;BME280;16074;42.708;23.312;2023-04-28T02:04:56;139484.59;;;4.86;73.82
788;BME280;16074;42.708;23.312;2023-04-28T02:07:25;139473.81;;;4.81;74.25
788;BME280;16074;42.708;23.312;2023-04-28T02:09:53;139463.03;;;4.77;74.41
788;BME280;16074;42.708;23.312;2023-04-28T02:12:21;139459.44;;;4.75;74.09
788;BME280;16074;42.708;23.312;2023-04-28T02:14:50;139455.84;;;4.74;74.40
788;BME280;16074;42.708;23.312;2023-04-28T02:17:20;139446.25;;;4.70;74.45
788;BME280;16074;42.708;23.312;2023-04-28T02:19:53;139440.28;;;4.68;74.68
788;BME280;16074;42.708;23.312;2023-04-28T02:22:22;139443.88;;;4.69;74.72
788;BME280;16074;42.708;23.312;2023-04-28T02:24:50;139452.28;;;4.72;74.42
788;BME280;16074;42.708;23.312;2023-04-28T02:27:18;139442.69;;;4.68;74.89
788;BME280;16074;42.708;23.312;2023-04-28T02:29:47;139434.28;;;4.65;74.75
788;BME280;16074;42.708;23.312;2023-04-28T02:32:16;139441.47;;;4.68;75.41
788;BME280;16074;42.708;23.312;2023-04-28T02:34:45;139439.06;;;4.67;75.49
788;BME280;16074;42.708;23.312;2023-04-28T02:37:14;139428.31;;;4.63;75.19
788;BME280;16074;42.708;23.312;2023-04-28T02:39:42;139427.09;;;4.62;75.60
788;BME280;16074;42.708;23.312;2023-04-28T02:42:10;139416.34;;;4.58;75.92
788;BME280;16074;42.708;23.312;2023-04-28T02:44:39;139407.94;;;4.54;76.20
788;BME280;16074;42.708;23.312;2023-04-28T02:47:07;139404.38;;;4.53;76.45
788;BME280;16074;42.708;23.312;2023-04-28T02:49:35;139392.38;;;4.48;76.50
788;BME280;16074;42.708;23.312;2023-04-28T02:52:05;139396.00;;;4.49;76.68
788;BME280;16074;42.708;23.312;2023-04-28T02:54:33;139393.63;;;4.48;77.41
788;BME280;16074;42.708;23.312;2023-04-28T02:57:03;139390.00;;;4.47;77.20
788;BME280;16074;42.708;23.312;2023-04-28T02:59:31;139393.63;;;4.48;77.23
788;BME280;16074;42.708;23.312;2023-04-28T03:01:59;139398.41;;;4.50;76.52
788;BME280;16074;42.708;23.312;2023-04-28T03:04:28;139403.19;;;4.52;77.04
788;BME280;16074;42.708;23.312;2023-04-28T03:06:57;139400.78;;;4.51;76.91
788;BME280;16074;42.708;23.312;2023-04-28T03:09:26;139398.41;;;4.50;76.39
788;BME280;16074;42.708;23.312;2023-04-28T03:11:54;139404.38;;;4.53;76.36
788;BME280;16074;42.708;23.312;2023-04-28T03:14:23;139403.19;;;4.52;76.08
788;BME280;16074;42.708;23.312;2023-04-28T03:16:53;139397.19;;;4.50;76.45
788;BME280;16074;42.708;23.312;2023-04-28T03:19:22;139397.19;;;4.50;76.46
788;BME280;16074;42.708;23.312;2023-04-28T03:21:51;139392.38;;;4.48;76.96
788;BME280;16074;42.708;23.312;2023-04-28T03:24:19;139393.63;;;4.48;76.68
788;BME280;16074;42.708;23.312;2023-04-28T03:26:51;139392.38;;;4.48;76.69
788;BME280;16074;42.708;23.312;2023-04-28T03:29:19;139399.56;;;4.51;76.45
788;BME280;16074;42.708;23.312;2023-04-28T03:31:50;139397.19;;;4.50;76.31
788;BME280;16074;42.708;23.312;2023-04-28T03:34:18;139397.19;;;4.50;76.31
788;BME280;16074;42.708;23.312;2023-04-28T03:36:47;139400.78;;;4.51;75.73
788;BME280;16074;42.708;23.312;2023-04-28T03:39:23;139400.78;;;4.51;75.65
788;BME280;16074;42.708;23.312;2023-04-28T03:41:53;139403.19;;;4.52;75.09
788;BME280;16074;42.708;23.312;2023-04-28T03:44:44;139397.19;;;4.50;75.30
788;BME280;16074;42.708;23.312;2023-04-28T03:47:12;139399.56;;;4.51;75.75
788;BME280;16074;42.708;23.312;2023-04-28T03:49:40;139403.19;;;4.52;75.60
788;BME280;16074;42.708;23.312;2023-04-28T03:52:09;139396.00;;;4.49;75.60
788;BME280;16074;42.708;23.312;2023-04-28T03:54:38;139404.38;;;4.53;75.39
788;BME280;16074;42.708;23.312;2023-04-28T03:57:09;139415.13;;;4.57;75.33
788;BME280;16074;42.708;23.312;2023-04-28T03:59:38;139415.13;;;4.57;75.09
788;BME280;16074;42.708;23.312;2023-04-28T04:02:06;139419.91;;;4.59;74.96
788;BME280;16074;42.708;23.312;2023-04-28T04:04:35;139439.06;;;4.67;74.92
788;BME280;16074;42.708;23.312;2023-04-28T04:07:03;139439.06;;;4.67;74.75
788;BME280;16074;42.708;23.312;2023-04-28T04:09:32;139441.47;;;4.68;74.81
788;BME280;16074;42.708;23.312;2023-04-28T04:12:00;139452.28;;;4.72;74.71
788;BME280;16074;42.708;23.312;2023-04-28T04:14:30;139459.44;;;4.75;73.89
788;BME280;16074;42.708;23.312;2023-04-28T04:16:59;139466.63;;;4.78;73.62
788;BME280;16074;42.708;23.312;2023-04-28T04:19:28;139482.19;;;4.85;73.12
788;BME280;16074;42.708;23.312;2023-04-28T04:21:56;139498.97;;;4.92;72.71
788;BME280;16074;42.708;23.312;2023-04-28T04:24:25;139504.94;;;4.94;71.95
788;BME280;16074;42.708;23.312;2023-04-28T04:26:53;139532.50;;;5.06;72.44
788;BME280;16074;42.708;23.312;2023-04-28T04:29:34;139540.88;;;5.09;70.51
788;BME280;16074;42.708;23.312;2023-04-28T04:32:09;139540.88;;;5.09;69.75
788;BME280;16074;42.708;23.312;2023-04-28T04:34:40;139548.06;;;5.12;69.68
788;BME280;16074;42.708;23.312;2023-04-28T04:37:10;139569.63;;;5.21;69.22
788;BME280;16074;42.708;23.312;2023-04-28T04:39:45;139584.00;;;5.27;68.49
788;BME280;16074;42.708;23.312;2023-04-28T04:42:14;139580.38;;;5.26;67.66
788;BME280;16074;42.708;23.312;2023-04-28T04:45:10;139599.56;;;5.34;68.57
788;BME280;16074;42.708;23.312;2023-04-28T04:47:40;139587.56;;;5.29;68.20
788;BME280;16074;42.708;23.312;2023-04-28T04:50:10;139598.38;;;5.33;68.63
788;BME280;16074;42.708;23.312;2023-04-28T04:52:39;139615.13;;;5.40;68.49
788;BME280;16074;42.708;23.312;2023-04-28T04:55:07;139613.94;;;5.40;67.36
788;BME280;16074;42.708;23.312;2023-04-28T04:57:39;139631.88;;;5.47;67.62
788;BME280;16074;42.708;23.312;2023-04-28T05:00:21;139654.69;;;5.57;66.97
788;BME280;16074;42.708;23.312;2023-04-28T05:02:51;139665.47;;;5.61;66.62
788;BME280;16074;42.708;23.312;2023-04-28T05:05:19;139661.88;;;5.60;66.87
788;BME280;16074;42.708;23.312;2023-04-28T05:08:04;139676.25;;;5.66;66.56
788;BME280;16074;42.708;23.312;2023-04-28T05:10:33;139691.81;;;5.72;66.31
788;BME280;16074;42.708;23.312;2023-04-28T05:13:02;139721.81;;;5.85;66.51
788;BME280;16074;42.708;23.312;2023-04-28T05:15:32;139738.59;;;5.91;66.24
788;BME280;16074;42.708;23.312;2023-04-28T05:18:19;139768.56;;;6.04;65.51
788;BME280;16074;42.708;23.312;2023-04-28T05:20:47;139757.78;;;5.99;65.45
788;BME280;16074;42.708;23.312;2023-04-28T05:23:17;139772.19;;;6.05;65.32
788;BME280;16074;42.708;23.312;2023-04-28T05:25:46;139805.78;;;6.19;65.42
788;BME280;16074;42.708;23.312;2023-04-28T05:28:15;139802.16;;;6.18;65.81
788;BME280;16074;42.708;23.312;2023-04-28T05:30:47;139836.91;;;6.32;65.29
788;BME280;16074;42.708;23.312;2023-04-28T05:33:16;139856.09;;;6.40;65.36
788;BME280;16074;42.708;23.312;2023-04-28T05:35:46;139905.28;;;6.61;65.75
788;BME280;16074;42.708;23.312;2023-04-28T05:38:14;139924.47;;;6.69;64.96
788;BME280;16074;42.708;23.312;2023-04-28T05:40:43;139953.28;;;6.81;64.14
788;BME280;16074;42.708;23.312;2023-04-28T05:43:12;139952.03;;;6.80;64.30
788;BME280;16074;42.708;23.312;2023-04-28T05:45:41;139947.28;;;6.78;62.75
788;BME280;16074;42.708;23.312;2023-04-28T05:48:11;139964.06;;;6.85;62.40
788;BME280;16074;42.708;23.312;2023-04-28T05:50:40;139994.06;;;6.98;63.22
788;BME280;16074;42.708;23.312;2023-04-28T05:53:09;140010.88;;;7.05;62.47
788;BME280;16074;42.708;23.312;2023-04-28T05:55:38;140012.06;;;7.05;62.64
788;BME280;16074;42.708;23.312;2023-04-28T05:58:06;140043.28;;;7.18;62.42
788;BME280;16074;42.708;23.312;2023-04-28T06:00:34;140064.88;;;7.27;62.83
788;BME280;16074;42.708;23.312;2023-04-28T06:03:03;140090.09;;;7.37;62.02
788;BME280;16074;42.708;23.312;2023-04-28T06:05:33;140126.09;;;7.52;61.92
788;BME280;16074;42.708;23.312;2023-04-28T06:08:02;140140.53;;;7.58;60.86
788;BME280;16074;42.708;23.312;2023-04-28T06:10:30;140162.09;;;7.67;60.48
788;BME280;16074;42.708;23.312;2023-04-28T06:12:58;140186.13;;;7.77;60.43
788;BME280;16074;42.708;23.312;2023-04-28T06:15:28;140206.56;;;7.86;60.36
788;BME280;16074;42.708;23.312;2023-04-28T06:17:57;140210.16;;;7.87;58.68
788;BME280;16074;42.708;23.312;2023-04-28T06:20:25;140231.78;;;7.96;58.40
788;BME280;16074;42.708;23.312;2023-04-28T06:22:55;140284.69;;;8.18;58.49
788;BME280;16074;42.708;23.312;2023-04-28T06:25:23;140318.28;;;8.32;56.97
788;BME280;16074;42.708;23.312;2023-04-28T06:27:51;140313.47;;;8.30;57.06
788;BME280;16074;42.708;23.312;2023-04-28T06:30:21;140362.75;;;8.50;57.54
788;BME280;16074;42.708;23.312;2023-04-28T06:32:50;140397.63;;;8.65;56.60
788;BME280;16074;42.708;23.312;2023-04-28T06:35:18;140437.28;;;8.81;55.83
788;BME280;16074;42.708;23.312;2023-04-28T06:37:46;140472.13;;;8.96;55.70
788;BME280;16074;42.708;23.312;2023-04-28T06:40:16;140495.00;;;9.05;55.67
788;BME280;16074;42.708;23.312;2023-04-28T06:42:50;140533.44;;;9.21;54.59
788;BME280;16074;42.708;23.312;2023-04-28T06:45:23;140523.84;;;9.17;53.66
788;BME280;16074;42.708;23.312;2023-04-28T06:47:52;140531.03;;;9.20;53.83
788;BME280;16074;42.708;23.312;2023-04-28T06:50:22;140571.94;;;9.37;53.90
788;BME280;16074;42.708;23.312;2023-04-28T06:52:50;140604.41;;;9.50;54.23
788;BME280;16074;42.708;23.312;2023-04-28T06:55:21;140635.69;;;9.63;53.85
788;BME280;16074;42.708;23.312;2023-04-28T06:57:49;140659.78;;;9.73;53.30
788;BME280;16074;42.708;23.312;2023-04-28T07:00:18;140677.81;;;9.81;52.38
788;BME280;16074;42.708;23.312;2023-04-28T07:02:46;140722.31;;;9.99;50.86
788;BME280;16074;42.708;23.312;2023-04-28T07:05:15;140762.13;;;10.16;51.59
788;BME280;16074;42.708;23.312;2023-04-28T07:07:44;140857.19;;;10.55;51.45
788;BME280;16074;42.708;23.312;2023-04-28T07:10:12;140908.97;;;10.76;48.56
788;BME280;16074;42.708;23.312;2023-04-28T07:12:43;140936.69;;;10.88;49.04
788;BME280;16074;42.708;23.312;2023-04-28T07:15:11;140989.66;;;11.10;47.95
788;BME280;16074;42.708;23.312;2023-04-28T07:17:39;141088.50;;;11.51;47.34
788;BME280;16074;42.708;23.312;2023-04-28T07:20:08;141162.06;;;11.81;47.10
788;BME280;16074;42.708;23.312;2023-04-28T07:22:36;141197.03;;;11.95;45.82
788;BME280;16074;42.708;23.312;2023-04-28T07:25:05;141279.00;;;12.29;44.67
788;BME280;16074;42.708;23.312;2023-04-28T07:27:36;141274.19;;;12.27;43.50
788;BME280;16074;42.708;23.312;2023-04-28T07:30:06;141421.34;;;12.88;43.76
788;BME280;16074;42.708;23.312;2023-04-28T07:32:53;141451.59;;;13.01;43.21
788;BME280;16074;42.708;23.312;2023-04-28T07:35:22;141490.19;;;13.16;41.45
788;BME280;16074;42.708;23.312;2023-04-28T07:37:50;141536.06;;;13.35;39.56
788;BME280;16074;42.708;23.312;2023-04-28T07:40:19;141467.28;;;13.07;40.02
788;BME280;16074;42.708;23.312;2023-04-28T07:42:47;141338.09;;;12.54;41.09
788;BME280;16074;42.708;23.312;2023-04-28T07:45:17;141426.19;;;12.90;40.26
788;BME280;16074;42.708;23.312;2023-04-28T07:47:45;141342.91;;;12.56;40.90
788;BME280;16074;42.708;23.312;2023-04-28T07:50:13;141299.53;;;12.38;41.38
788;BME280;16074;42.708;23.312;2023-04-28T07:52:42;141259.69;;;12.21;40.31
788;BME280;16074;42.708;23.312;2023-04-28T07:55:10;141305.53;;;12.40;39.93
788;BME280;16074;42.708;23.312;2023-04-28T07:57:38;141437.13;;;12.95;40.38
788;BME280;16074;42.708;23.312;2023-04-28T08:00:08;141551.75;;;13.42;39.67
788;BME280;16074;42.708;23.312;2023-04-28T08:02:39;141680.97;;;13.95;39.18
788;BME280;16074;42.708;23.312;2023-04-28T08:05:08;141731.78;;;14.16;38.21
788;BME280;16074;42.708;23.312;2023-04-28T08:07:37;141788.56;;;14.39;37.90
788;BME280;16074;42.708;23.312;2023-04-28T08:10:07;141899.75;;;14.85;36.66
788;BME280;16074;42.708;23.312;2023-04-28T08:12:36;141938.44;;;15.01;36.75
788;BME280;16074;42.708;23.312;2023-04-28T08:15:05;141887.66;;;14.80;36.11
788;BME280;16074;42.708;23.312;2023-04-28T08:17:33;141746.25;;;14.22;36.78
788;BME280;16074;42.708;23.312;2023-04-28T08:20:04;141908.19;;;14.89;37.04
788;BME280;16074;42.708;23.312;2023-04-28T08:22:33;141855.03;;;14.67;36.92
788;BME280;16074;42.708;23.312;2023-04-28T08:25:02;142002.59;;;15.28;37.04
788;BME280;16074;42.708;23.312;2023-04-28T08:27:30;142092.06;;;15.64;36.31
788;BME280;16074;42.708;23.312;2023-04-28T08:29:59;142163.47;;;15.94;35.64
788;BME280;16074;42.708;23.312;2023-04-28T08:32:28;142015.88;;;15.33;35.18
788;BME280;16074;42.708;23.312;2023-04-28T08:34:56;142157.38;;;15.91;34.96
788;BME280;16074;42.708;23.312;2023-04-28T08:37:27;142098.09;;;15.67;35.09
788;BME280;16074;42.708;23.312;2023-04-28T08:39:55;142205.81;;;16.11;34.83
788;BME280;16074;42.708;23.312;2023-04-28T08:42:28;142259.13;;;16.33;35.05
788;BME280;16074;42.708;23.312;2023-04-28T08:44:57;142326.91;;;16.61;34.96
788;BME280;16074;42.708;23.312;2023-04-28T08:47:32;142423.75;;;17.01;33.84
788;BME280;16074;42.708;23.312;2023-04-28T08:50:02;142541.34;;;17.49;32.44
788;BME280;16074;42.708;23.312;2023-04-28T08:52:33;142600.72;;;17.74;32.53
788;BME280;16074;42.708;23.312;2023-04-28T08:55:05;142686.78;;;18.09;31.94
788;BME280;16074;42.708;23.312;2023-04-28T08:57:36;142599.53;;;17.73;31.88
788;BME280;16074;42.708;23.312;2023-04-28T09:00:08;142512.25;;;17.37;31.79
788;BME280;16074;42.708;23.312;2023-04-28T09:02:36;142540.16;;;17.49;32.02
788;BME280;16074;42.708;23.312;2023-04-28T09:05:08;142696.47;;;18.13;31.58
788;BME280;16074;42.708;23.312;2023-04-28T09:07:39;142626.19;;;17.84;31.16
788;BME280;16074;42.708;23.312;2023-04-28T09:10:15;142713.47;;;18.20;30.90
788;BME280;16074;42.708;23.312;2023-04-28T09:12:44;142729.25;;;18.26;31.25
788;BME280;16074;42.708;23.312;2023-04-28T09:15:25;142728.06;;;18.26;31.34
788;BME280;16074;42.708;23.312;2023-04-28T09:17:53;142839.63;;;18.72;31.36
788;BME280;16074;42.708;23.312;2023-04-28T09:20:23;142806.91;;;18.58;30.91
788;BME280;16074;42.708;23.312;2023-04-28T09:22:54;142874.81;;;18.86;30.38
788;BME280;16074;42.708;23.312;2023-04-28T09:25:23;142878.47;;;18.88;30.15
788;BME280;16074;42.708;23.312;2023-04-28T09:27:52;142967.09;;;19.24;30.93
788;BME280;16074;42.708;23.312;2023-04-28T09:30:37;143033.84;;;19.51;29.24
788;BME280;16074;42.708;23.312;2023-04-28T09:33:06;143092.09;;;19.75;28.92
788;BME280;16074;42.708;23.312;2023-04-28T09:35:40;143110.34;;;19.83;29.35
788;BME280;16074;42.708;23.312;2023-04-28T09:38:11;142776.53;;;18.46;29.59
788;BME280;16074;42.708;23.312;2023-04-28T09:40:54;142913.63;;;19.02;30.08
788;BME280;16074;42.708;23.312;2023-04-28T09:43:24;142967.09;;;19.24;29.68
788;BME280;16074;42.708;23.312;2023-04-28T09:45:52;142971.94;;;19.26;29.46
788;BME280;16074;42.708;23.312;2023-04-28T09:48:31;142947.69;;;19.16;28.76
788;BME280;16074;42.708;23.312;2023-04-28T09:51:01;142946.44;;;19.16;29.10
788;BME280;16074;42.708;23.312;2023-04-28T09:53:31;143033.84;;;19.51;29.52
788;BME280;16074;42.708;23.312;2023-04-28T09:56:01;142962.25;;;19.22;28.41
788;BME280;16074;42.708;23.312;2023-04-28T09:58:33;142985.28;;;19.31;28.64
788;BME280;16074;42.708;23.312;2023-04-28T10:01:05;143045.94;;;19.56;29.36
788;BME280;16074;42.708;23.312;2023-04-28T10:03:38;143134.59;;;19.93;28.79
788;BME280;16074;42.708;23.312;2023-04-28T10:06:07;143138.25;;;19.94;29.01
788;BME280;16074;42.708;23.312;2023-04-28T10:08:36;143103.03;;;19.80;29.04
788;BME280;16074;42.708;23.312;2023-04-28T10:11:06;143191.69;;;20.16;28.89
788;BME280;16074;42.708;23.312;2023-04-28T10:13:35;143273.09;;;20.49;27.26
788;BME280;16074;42.708;23.312;2023-04-28T10:16:05;143233.00;;;20.33;27.67
788;BME280;16074;42.708;23.312;2023-04-28T10:18:35;143216.00;;;20.26;26.97
788;BME280;16074;42.708;23.312;2023-04-28T10:21:05;143139.44;;;19.95;27.32
788;BME280;16074;42.708;23.312;2023-04-28T10:23:50;143194.13;;;20.17;26.68
788;BME280;16074;42.708;23.312;2023-04-28T10:29:15;143290.09;;;20.56;26.50
788;BME280;16074;42.708;23.312;2023-04-28T10:32:14;143286.47;;;20.55;26.31
788;BME280;16074;42.708;23.312;2023-04-28T10:34:43;143432.38;;;21.15;25.50
788;BME280;16074;42.708;23.312;2023-04-28T10:37:11;143579.50;;;21.75;25.13
788;BME280;16074;42.708;23.312;2023-04-28T10:42:54;143769.34;;;22.53;24.42
788;BME280;16074;42.708;23.312;2023-04-28T10:46:00;143962.97;;;23.32;23.42
788;BME280;16074;42.708;23.312;2023-04-28T10:48:51;144060.38;;;23.72;23.10
788;BME280;16074;42.708;23.312;2023-04-28T10:51:27;143966.59;;;23.33;23.36
788;BME280;16074;42.708;23.312;2023-04-28T10:54:22;144204.22;;;24.30;23.07
788;BME280;16074;42.708;23.312;2023-04-28T10:57:18;144321.25;;;24.78;22.01
788;BME280;16074;42.708;23.312;2023-04-28T10:59:49;144432.28;;;25.24;21.73
788;BME280;16074;42.708;23.312;2023-04-28T11:02:41;144496.94;;;25.50;21.99
788;BME280;16074;42.708;23.312;2023-04-28T11:05:17;144645.84;;;26.11;21.94
788;BME280;16074;42.708;23.312;2023-04-28T11:11:20;144215.19;;;24.35;21.97
788;BME280;16074;42.708;23.312;2023-04-28T11:13:50;144393.22;;;25.08;21.54
788;BME280;16074;42.708;23.312;2023-04-28T11:16:21;144528.69;;;25.63;21.42
788;BME280;16074;42.708;23.312;2023-04-28T11:18:58;144586.06;;;25.86;21.55
788;BME280;16074;42.708;23.312;2023-04-28T11:21:31;144660.50;;;26.17;21.63
788;BME280;16074;42.708;23.312;2023-04-28T11:23:59;144766.78;;;26.60;21.40
788;BME280;16074;42.708;23.312;2023-04-28T11:26:28;143858.22;;;22.89;22.50
788;BME280;16074;42.708;23.312;2023-04-28T11:28:57;143523.56;;;21.52;24.43
788;BME280;16074;42.708;23.312;2023-04-28T11:31:26;143446.97;;;21.21;25.40
788;BME280;16074;42.708;23.312;2023-04-28T11:33:58;143465.16;;;21.28;25.91
788;BME280;16074;42.708;23.312;2023-04-28T11:36:29;143832.63;;;22.79;24.77
788;BME280;16074;42.708;23.312;2023-04-28T11:38:59;143966.59;;;23.33;24.48
788;BME280;16074;42.708;23.312;2023-04-28T11:41:28;144077.50;;;23.79;23.38
788;BME280;16074;42.708;23.312;2023-04-28T11:43:56;144188.38;;;24.24;23.50
788;BME280;16074;42.708;23.312;2023-04-28T11:46:25;144348.09;;;24.89;23.14
788;BME280;16074;42.708;23.312;2023-04-28T11:49:02;144510.34;;;25.55;22.99
788;BME280;16074;42.708;23.312;2023-04-28T11:51:33;144628.78;;;26.04;22.27
788;BME280;16074;42.708;23.312;2023-04-28T11:54:02;144612.91;;;25.97;21.67
788;BME280;16074;42.708;23.312;2023-04-28T11:56:36;144681.25;;;26.25;21.85
788;BME280;16074;42.708;23.312;2023-04-28T11:59:05;144767.97;;;26.61;21.55
788;BME280;16074;42.708;23.312;2023-04-28T12:01:44;144776.50;;;26.64;21.60
788;BME280;16074;42.708;23.312;2023-04-28T12:04:15;144849.78;;;26.94;21.79
788;BME280;16074;42.708;23.312;2023-04-28T12:07:01;144684.94;;;26.27;22.21
788;BME280;16074;42.708;23.312;2023-04-28T12:09:29;144747.25;;;26.52;22.18
788;BME280;16074;42.708;23.312;2023-04-28T12:12:00;144778.94;;;26.65;21.40
788;BME280;16074;42.708;23.312;2023-04-28T12:14:29;144860.78;;;26.98;21.75
788;BME280;16074;42.708;23.312;2023-04-28T12:16:58;144793.59;;;26.71;21.08
788;BME280;16074;42.708;23.312;2023-04-28T12:19:28;144295.69;;;24.68;22.84
788;BME280;16074;42.708;23.312;2023-04-28T12:22:01;144367.63;;;24.97;22.38
788;BME280;16074;42.708;23.312;2023-04-28T12:24:30;144400.53;;;25.11;22.30
788;BME280;16074;42.708;23.312;2023-04-28T12:27:13;144504.28;;;25.53;22.95
788;BME280;16074;42.708;23.312;2023-04-28T12:29:43;144705.66;;;26.35;21.73
788;BME280;16074;42.708;23.312;2023-04-28T12:32:13;144722.75;;;26.42;21.96
788;BME280;16074;42.708;23.312;2023-04-28T12:34:44;144844.91;;;26.92;22.09
788;BME280;16074;42.708;23.312;2023-04-28T12:37:13;145036.81;;;27.70;21.07
788;BME280;16074;42.708;23.312;2023-04-28T12:39:41;145085.72;;;27.90;21.42
788;BME280;16074;42.708;23.312;2023-04-28T12:42:10;145248.34;;;28.56;20.25
788;BME280;16074;42.708;23.312;2023-04-28T12:44:38;145234.91;;;28.51;20.38
788;BME280;16074;42.708;23.312;2023-04-28T12:47:08;145336.41;;;28.92;21.13
788;BME280;16074;42.708;23.312;2023-04-28T12:49:37;145359.69;;;29.02;20.55
788;BME280;16074;42.708;23.312;2023-04-28T12:52:06;145232.47;;;28.50;19.93
788;BME280;16074;42.708;23.312;2023-04-28T12:54:35;145155.38;;;28.18;19.82
788;BME280;16074;42.708;23.312;2023-04-28T12:57:04;145325.44;;;28.88;19.64
788;BME280;16074;42.708;23.312;2023-04-28T12:59:32;145232.47;;;28.50;20.05
788;BME280;16074;42.708;23.312;2023-04-28T13:02:01;145349.91;;;28.98;19.29
788;BME280;16074;42.708;23.312;2023-04-28T13:04:29;145414.75;;;29.24;19.60
788;BME280;16074;42.708;23.312;2023-04-28T13:06:59;145286.22;;;28.72;19.78
788;BME280;16074;42.708;23.312;2023-04-28T13:09:28;144879.16;;;27.06;20.65
788;BME280;16074;42.708;23.312;2023-04-28T13:11:57;144543.31;;;25.69;21.66
788;BME280;16074;42.708;23.312;2023-04-28T13:14:25;144388.31;;;25.06;22.70
788;BME280;16074;42.708;23.312;2023-04-28T13:16:55;144642.19;;;26.09;21.44
788;BME280;16074;42.708;23.312;2023-04-28T13:19:23;144842.47;;;26.91;21.99
788;BME280;16074;42.708;23.312;2023-04-28T13:21:52;145002.53;;;27.56;21.56
788;BME280;16074;42.708;23.312;2023-04-28T13:24:20;145211.63;;;28.41;20.80
788;BME280;16074;42.708;23.312;2023-04-28T13:26:50;145292.38;;;28.74;20.08
788;BME280;16074;42.708;23.312;2023-04-28T13:29:18;145404.94;;;29.20;19.32
788;BME280;16074;42.708;23.312;2023-04-28T13:31:48;145110.16;;;28.00;20.29